sensor_id;sensor_type;location;lat;lon;timestamp;pressure;altitude;pressure_sealevel;temperature;humidity
22582;BME280;47125;48.542;9.052;2023-12-22T00:05:26;94751.50;;;8.29;86.18
22582;BME280;47125;48.542;9.052;2023-12-22T00:15:30;94765.75;;;8.23;85.42
22582;BME280;47125;48.542;9.052;2023-12-22T00:25:34;94779.28;;;8.48;84.71
22582;BME280;47125;48.542;9.052;2023-12-22T00:35:38;94779.91;;;8.55;82.06
22582;BME280;47125;48.542;9.052;2023-12-22T00:45:40;94784.94;;;8.57;80.56
22582;BME280;47125;48.542;9.052;2023-12-22T00:55:44;94743.69;;;8.54;78.88
22582;BME280;47125;48.542;9.052;2023-12-22T01:05:47;94782.78;;;8.54;77.39
22582;BME280;47125;48.542;9.052;2023-12-22T01:15:51;94781.72;;;8.50;77.33
22582;BME280;47125;48.542;9.052;2023-12-22T01:25:53;94792.25;;;8.13;81.55
22582;BME280;47125;48.542;9.052;2023-12-22T01:35:57;94831.47;;;8.01;85.30
22582;BME280;47125;48.542;9.052;2023-12-22T01:45:59;94833.22;;;7.47;84.97
22582;BME280;47125;48.542;9.052;2023-12-22T01:56:05;94824.22;;;7.31;83.54
22582;BME280;47125;48.542;9.052;2023-12-22T02:06:07;94831.19;;;7.54;81.55
22582;BME280;47125;48.542;9.052;2023-12-22T02:16:13;94830.59;;;7.52;81.92
22582;BME280;47125;48.542;9.052;2023-12-22T02:26:22;94812.66;;;7.59;80.84
22582;BME280;47125;48.542;9.052;2023-12-22T02:36:27;94838.16;;;7.82;79.61
22582;BME280;47125;48.542;9.052;2023-12-22T02:46:31;94854.59;;;7.78;80.02
22582;BME280;47125;48.542;9.052;2023-12-22T02:56:34;94845.69;;;7.90;78.24
22582;BME280;47125;48.542;9.052;2023-12-22T03:06:38;94845.31;;;7.81;81.21
22582;BME280;47125;48.542;9.052;2023-12-22T03:16:40;94868.00;;;7.67;79.37
22582;BME280;47125;48.542;9.052;2023-12-22T03:26:44;94865.97;;;7.74;78.54
22582;BME280;47125;48.542;9.052;2023-12-22T03:36:47;94843.00;;;7.63;77.99
22582;BME280;47125;48.542;9.052;2023-12-22T03:46:52;94858.00;;;7.74;77.53
22582;BME280;47125;48.542;9.052;2023-12-22T03:56:54;94864.97;;;7.80;76.87
22582;BME280;47125;48.542;9.052;2023-12-22T04:06:58;94850.94;;;7.85;76.37
22582;BME280;47125;48.542;9.052;2023-12-22T04:17:00;94847.09;;;7.97;75.13
22582;BME280;47125;48.542;9.052;2023-12-22T04:27:04;94887.47;;;8.16;73.57
22582;BME280;47125;48.542;9.052;2023-12-22T04:37:07;94883.31;;;8.03;75.59
22582;BME280;47125;48.542;9.052;2023-12-22T04:47:11;94891.63;;;7.85;79.46
22582;BME280;47125;48.542;9.052;2023-12-22T04:57:14;94904.22;;;7.95;81.33
22582;BME280;47125;48.542;9.052;2023-12-22T05:07:20;94911.25;;;7.84;78.71
22582;BME280;47125;48.542;9.052;2023-12-22T05:17:23;94915.53;;;8.07;74.91
22582;BME280;47125;48.542;9.052;2023-12-22T05:27:26;94918.06;;;8.18;73.91
22582;BME280;47125;48.542;9.052;2023-12-22T05:37:29;94919.50;;;8.26;72.99
22582;BME280;47125;48.542;9.052;2023-12-22T05:47:33;94929.41;;;8.30;72.04
22582;BME280;47125;48.542;9.052;2023-12-22T05:57:35;94939.66;;;8.22;71.93
22582;BME280;47125;48.542;9.052;2023-12-22T06:07:39;94945.41;;;8.36;72.25
22582;BME280;47125;48.542;9.052;2023-12-22T06:17:42;94980.34;;;8.22;74.02
22582;BME280;47125;48.542;9.052;2023-12-22T06:27:46;95006.44;;;8.04;78.26
22582;BME280;47125;48.542;9.052;2023-12-22T06:37:49;95020.22;;;8.01;80.62
22582;BME280;47125;48.542;9.052;2023-12-22T06:47:54;95028.81;;;8.08;81.24
22582;BME280;47125;48.542;9.052;2023-12-22T06:57:57;95046.63;;;7.91;77.18
22582;BME280;47125;48.542;9.052;2023-12-22T07:08:01;95030.47;;;7.92;75.79
22582;BME280;47125;48.542;9.052;2023-12-22T07:18:04;95031.19;;;7.88;74.13
22582;BME280;47125;48.542;9.052;2023-12-22T07:28:08;95061.50;;;8.08;73.45
22582;BME280;47125;48.542;9.052;2023-12-22T07:38:10;95053.03;;;8.11;72.95
22582;BME280;47125;48.542;9.052;2023-12-22T07:48:14;95052.13;;;8.01;74.31
22582;BME280;47125;48.542;9.052;2023-12-22T07:58:17;95037.91;;;8.12;75.06
22582;BME280;47125;48.542;9.052;2023-12-22T08:08:22;95044.59;;;8.14;75.50
22582;BME280;47125;48.542;9.052;2023-12-22T08:18:24;95061.69;;;8.35;74.92
22582;BME280;47125;48.542;9.052;2023-12-22T08:28:28;95055.53;;;8.18;75.12
22582;BME280;47125;48.542;9.052;2023-12-22T08:38:31;95054.56;;;8.41;74.35
22582;BME280;47125;48.542;9.052;2023-12-22T08:48:35;95059.78;;;8.36;73.34
22582;BME280;47125;48.542;9.052;2023-12-22T08:58:40;95077.88;;;8.34;74.91
22582;BME280;47125;48.542;9.052;2023-12-22T09:08:44;95103.91;;;8.32;76.21
22582;BME280;47125;48.542;9.052;2023-12-22T09:18:46;95091.44;;;8.32;77.38
22582;BME280;47125;48.542;9.052;2023-12-22T09:28:50;95109.38;;;8.25;79.43
22582;BME280;47125;48.542;9.052;2023-12-22T09:38:53;95113.00;;;8.19;80.72
22582;BME280;47125;48.542;9.052;2023-12-22T09:48:57;95121.03;;;8.24;80.40
22582;BME280;47125;48.542;9.052;2023-12-22T09:58:59;95132.25;;;8.26;79.35
22582;BME280;47125;48.542;9.052;2023-12-22T10:09:04;95120.56;;;8.27;78.03
22582;BME280;47125;48.542;9.052;2023-12-22T10:19:09;95087.53;;;8.40;77.54
22582;BME280;47125;48.542;9.052;2023-12-22T10:29:13;95094.41;;;8.57;76.69
22582;BME280;47125;48.542;9.052;2023-12-22T10:39:15;95085.72;;;8.45;77.12
22582;BME280;47125;48.542;9.052;2023-12-22T10:49:19;95061.78;;;8.45;78.02
22582;BME280;47125;48.542;9.052;2023-12-22T10:59:22;95059.25;;;8.34;78.83
22582;BME280;47125;48.542;9.052;2023-12-22T11:09:26;95037.63;;;8.47;80.31
22582;BME280;47125;48.542;9.052;2023-12-22T11:19:33;95031.16;;;8.43;82.20
22582;BME280;47125;48.542;9.052;2023-12-22T11:29:39;95038.88;;;8.44;84.08
22582;BME280;47125;48.542;9.052;2023-12-22T11:39:43;95020.84;;;8.46;84.54
22582;BME280;47125;48.542;9.052;2023-12-22T11:49:47;94974.06;;;8.28;87.14
22582;BME280;47125;48.542;9.052;2023-12-22T11:59:51;94938.53;;;8.18;88.35
22582;BME280;47125;48.542;9.052;2023-12-22T12:09:55;94942.06;;;8.23;88.97
22582;BME280;47125;48.542;9.052;2023-12-22T12:19:58;94929.19;;;8.32;88.83
22582;BME280;47125;48.542;9.052;2023-12-22T12:30:05;94884.00;;;8.15;89.61
22582;BME280;47125;48.542;9.052;2023-12-22T12:40:08;94876.06;;;8.20;90.21
22582;BME280;47125;48.542;9.052;2023-12-22T12:50:14;94855.69;;;8.26;90.40
22582;BME280;47125;48.542;9.052;2023-12-22T13:00:26;94852.63;;;8.39;90.06
22582;BME280;47125;48.542;9.052;2023-12-22T13:10:30;94852.44;;;8.46;89.88
22582;BME280;47125;48.542;9.052;2023-12-22T13:20:33;94874.56;;;8.51;90.97
22582;BME280;47125;48.542;9.052;2023-12-22T13:30:38;94887.38;;;8.54;91.66
22582;BME280;47125;48.542;9.052;2023-12-22T13:40:44;94881.06;;;8.65;91.95
22582;BME280;47125;48.542;9.052;2023-12-22T13:50:56;94894.94;;;8.67;92.47
22582;BME280;47125;48.542;9.052;2023-12-22T14:00:58;94906.19;;;8.74;93.94
22582;BME280;47125;48.542;9.052;2023-12-22T14:11:02;94907.38;;;8.89;94.21
22582;BME280;47125;48.542;9.052;2023-12-22T14:21:05;94919.59;;;8.84;94.79
22582;BME280;47125;48.542;9.052;2023-12-22T14:31:09;94911.09;;;8.88;95.13
22582;BME280;47125;48.542;9.052;2023-12-22T14:41:11;94918.53;;;8.85;94.93
22582;BME280;47125;48.542;9.052;2023-12-22T14:51:15;94942.00;;;8.89;96.18
22582;BME280;47125;48.542;9.052;2023-12-22T15:01:18;94971.88;;;8.96;95.44
22582;BME280;47125;48.542;9.052;2023-12-22T15:11:22;94978.34;;;9.05;94.98
22582;BME280;47125;48.542;9.052;2023-12-22T15:21:24;94969.09;;;9.12;94.67
22582;BME280;47125;48.542;9.052;2023-12-22T15:31:29;94981.09;;;9.15;95.11
22582;BME280;47125;48.542;9.052;2023-12-22T15:41:36;95004.09;;;9.26;93.25
22582;BME280;47125;48.542;9.052;2023-12-22T15:51:40;95018.50;;;9.25;91.54
22582;BME280;47125;48.542;9.052;2023-12-22T16:01:43;95031.09;;;9.08;89.51
22582;BME280;47125;48.542;9.052;2023-12-22T16:11:48;95030.44;;;9.22;87.11
22582;BME280;47125;48.542;9.052;2023-12-22T16:21:50;95052.22;;;9.14;89.06
22582;BME280;47125;48.542;9.052;2023-12-22T16:31:55;95045.25;;;9.13;92.87
22582;BME280;47125;48.542;9.052;2023-12-22T16:41:57;95059.16;;;9.15;93.61
22582;BME280;47125;48.542;9.052;2023-12-22T16:52:01;95060.19;;;9.14;92.35
22582;BME280;47125;48.542;9.052;2023-12-22T17:02:04;95051.22;;;9.20;90.17
22582;BME280;47125;48.542;9.052;2023-12-22T17:12:28;95079.94;;;9.40;89.73
22582;BME280;47125;48.542;9.052;2023-12-22T17:22:30;95092.28;;;9.24;90.49
22582;BME280;47125;48.542;9.052;2023-12-22T17:32:34;95099.41;;;9.19;91.83
22582;BME280;47125;48.542;9.052;2023-12-22T17:42:37;95112.09;;;9.33;92.47
22582;BME280;47125;48.542;9.052;2023-12-22T17:52:44;95116.31;;;9.29;93.96
22582;BME280;47125;48.542;9.052;2023-12-22T18:02:46;95126.56;;;9.16;93.20
22582;BME280;47125;48.542;9.052;2023-12-22T18:12:52;95124.84;;;9.31;90.66
22582;BME280;47125;48.542;9.052;2023-12-22T18:22:55;95123.31;;;9.14;88.62
22582;BME280;47125;48.542;9.052;2023-12-22T18:32:59;95134.22;;;9.34;86.84
22582;BME280;47125;48.542;9.052;2023-12-22T18:43:01;95141.41;;;9.12;88.54
22582;BME280;47125;48.542;9.052;2023-12-22T18:53:07;95144.81;;;9.07;88.87
22582;BME280;47125;48.542;9.052;2023-12-22T19:03:10;95133.50;;;8.95;88.68
22582;BME280;47125;48.542;9.052;2023-12-22T19:13:14;95165.34;;;9.07;89.03
22582;BME280;47125;48.542;9.052;2023-12-22T19:23:17;95192.47;;;9.04;87.96
22582;BME280;47125;48.542;9.052;2023-12-22T19:33:22;95227.13;;;9.09;88.67
22582;BME280;47125;48.542;9.052;2023-12-22T19:43:25;95205.00;;;9.08;89.97
22582;BME280;47125;48.542;9.052;2023-12-22T19:53:29;95202.53;;;9.02;87.52
22582;BME280;47125;48.542;9.052;2023-12-22T20:03:31;95195.22;;;9.14;87.18
22582;BME280;47125;48.542;9.052;2023-12-22T20:13:36;95223.34;;;9.05;88.16
22582;BME280;47125;48.542;9.052;2023-12-22T20:23:38;95245.88;;;8.97;89.17
22582;BME280;47125;48.542;9.052;2023-12-22T20:33:42;95239.25;;;9.00;91.12
22582;BME280;47125;48.542;9.052;2023-12-22T20:43:45;95267.34;;;8.91;91.47
22582;BME280;47125;48.542;9.052;2023-12-22T20:53:48;95284.69;;;8.93;90.86
22582;BME280;47125;48.542;9.052;2023-12-22T21:03:51;95304.97;;;8.94;90.25
22582;BME280;47125;48.542;9.052;2023-12-22T21:13:56;95293.72;;;9.09;88.10
22582;BME280;47125;48.542;9.052;2023-12-22T21:23:58;95319.97;;;9.00;88.42
22582;BME280;47125;48.542;9.052;2023-12-22T21:34:02;95302.84;;;8.96;88.01
22582;BME280;47125;48.542;9.052;2023-12-22T21:44:05;95305.28;;;8.98;87.60
22582;BME280;47125;48.542;9.052;2023-12-22T21:54:09;95320.66;;;8.96;87.79
22582;BME280;47125;48.542;9.052;2023-12-22T22:04:12;95317.78;;;8.80;87.29
22582;BME280;47125;48.542;9.052;2023-12-22T22:14:17;95341.19;;;8.95;86.53
22582;BME280;47125;48.542;9.052;2023-12-22T22:24:30;95362.91;;;9.04;85.43
22582;BME280;47125;48.542;9.052;2023-12-22T22:34:33;95363.19;;;8.91;85.29
22582;BME280;47125;48.542;9.052;2023-12-22T22:44:36;95385.06;;;9.09;85.73
22582;BME280;47125;48.542;9.052;2023-12-22T22:54:40;95384.66;;;8.84;87.32
22582;BME280;47125;48.542;9.052;2023-12-22T23:04:43;95385.47;;;8.84;87.14
22582;BME280;47125;48.542;9.052;2023-12-22T23:14:49;95400.25;;;8.92;86.80
22582;BME280;47125;48.542;9.052;2023-12-22T23:24:51;95423.97;;;8.77;87.81
22582;BME280;47125;48.542;9.052;2023-12-22T23:34:55;95405.88;;;8.79;87.10
22582;BME280;47125;48.542;9.052;2023-12-22T23:44:58;95428.13;;;8.73;86.60
22582;BME280;47125;48.542;9.052;2023-12-22T23:55:02;95423.78;;;8.83;85.68
